sensor_id;sensor_type;location;lat;lon;timestamp;P1;durP1;ratioP1;P2;durP2;ratioP2
18685;SDS011;9473;52.342;13.110;2022-08-04T00:00:58;7.38;;;4.20;;
18685;SDS011;9473;52.342;13.110;2022-08-04T00:03:30;9.57;;;4.57;;
18685;SDS011;9473;52.342;13.110;2022-08-04T00:05:59;7.07;;;4.43;;
18685;SDS011;9473;52.342;13.110;2022-08-04T00:08:30;10.30;;;4.57;;
18685;SDS011;9473;52.342;13.110;2022-08-04T00:10:59;9.93;;;4.22;;
18685;SDS011;9473;52.342;13.110;2022-08-04T00:13:27;6.28;;;4.43;;
18685;SDS011;9473;52.342;13.110;2022-08-04T00:15:58;11.50;;;4.60;;
18685;SDS011;9473;52.342;13.110;2022-08-04T00:18:26;4.75;;;4.22;;
18685;SDS011;9473;52.342;13.110;2022-08-04T00:20:53;7.40;;;4.38;;
18685;SDS011;9473;52.342;13.110;2022-08-04T00:23:23;11.23;;;4.30;;
18685;SDS011;9473;52.342;13.110;2022-08-04T00:25:52;5.75;;;3.90;;
18685;SDS011;9473;52.342;13.110;2022-08-04T00:28:19;9.60;;;4.10;;
18685;SDS011;9473;52.342;13.110;2022-08-04T00:30:46;5.65;;;4.25;;
18685;SDS011;9473;52.342;13.110;2022-08-04T00:33:16;8.30;;;4.50;;
18685;SDS011;9473;52.342;13.110;2022-08-04T00:35:44;9.45;;;4.18;;
18685;SDS011;9473;52.342;13.110;2022-08-04T00:38:12;8.70;;;4.28;;
18685;SDS011;9473;52.342;13.110;2022-08-04T00:40:41;11.65;;;4.80;;
18685;SDS011;9473;52.342;13.110;2022-08-04T00:43:14;9.23;;;4.68;;
18685;SDS011;9473;52.342;13.110;2022-08-04T00:45:48;10.07;;;5.20;;
18685;SDS011;9473;52.342;13.110;2022-08-04T00:48:24;5.13;;;4.35;;
18685;SDS011;9473;52.342;13.110;2022-08-04T00:50:56;7.70;;;4.53;;
18685;SDS011;9473;52.342;13.110;2022-08-04T00:53:27;9.77;;;4.35;;
18685;SDS011;9473;52.342;13.110;2022-08-04T00:56:11;6.95;;;4.50;;
18685;SDS011;9473;52.342;13.110;2022-08-04T00:58:42;5.95;;;4.20;;
18685;SDS011;9473;52.342;13.110;2022-08-04T01:01:17;5.43;;;4.22;;
18685;SDS011;9473;52.342;13.110;2022-08-04T01:03:50;7.82;;;4.43;;
18685;SDS011;9473;52.342;13.110;2022-08-04T01:06:28;5.30;;;4.22;;
18685;SDS011;9473;52.342;13.110;2022-08-04T01:09:01;5.05;;;4.32;;
18685;SDS011;9473;52.342;13.110;2022-08-04T01:11:37;5.78;;;4.30;;
18685;SDS011;9473;52.342;13.110;2022-08-04T01:14:12;5.68;;;4.10;;
18685;SDS011;9473;52.342;13.110;2022-08-04T01:16:45;7.97;;;4.43;;
18685;SDS011;9473;52.342;13.110;2022-08-04T01:19:19;5.65;;;4.10;;
18685;SDS011;9473;52.342;13.110;2022-08-04T01:22:00;5.93;;;4.10;;
18685;SDS011;9473;52.342;13.110;2022-08-04T01:27:23;6.88;;;4.30;;
18685;SDS011;9473;52.342;13.110;2022-08-04T01:29:54;4.80;;;4.18;;
18685;SDS011;9473;52.342;13.110;2022-08-04T01:32:23;6.07;;;4.50;;
18685;SDS011;9473;52.342;13.110;2022-08-04T01:34:52;5.60;;;4.53;;
18685;SDS011;9473;52.342;13.110;2022-08-04T01:37:23;7.78;;;4.90;;
18685;SDS011;9473;52.342;13.110;2022-08-04T01:39:57;5.75;;;4.47;;
18685;SDS011;9473;52.342;13.110;2022-08-04T01:42:25;7.40;;;5.20;;
18685;SDS011;9473;52.342;13.110;2022-08-04T01:44:55;8.25;;;4.40;;
18685;SDS011;9473;52.342;13.110;2022-08-04T01:47:24;6.47;;;4.90;;
18685;SDS011;9473;52.342;13.110;2022-08-04T01:49:54;8.85;;;4.97;;
18685;SDS011;9473;52.342;13.110;2022-08-04T01:52:25;6.97;;;4.47;;
18685;SDS011;9473;52.342;13.110;2022-08-04T01:54:53;7.40;;;4.65;;
18685;SDS011;9473;52.342;13.110;2022-08-04T01:57:21;8.15;;;4.80;;
18685;SDS011;9473;52.342;13.110;2022-08-04T01:59:49;5.10;;;4.28;;
18685;SDS011;9473;52.342;13.110;2022-08-04T02:02:18;6.20;;;4.25;;
18685;SDS011;9473;52.342;13.110;2022-08-04T02:04:48;7.80;;;3.95;;
18685;SDS011;9473;52.342;13.110;2022-08-04T02:07:25;5.80;;;4.20;;
18685;SDS011;9473;52.342;13.110;2022-08-04T02:09:58;6.85;;;4.63;;
18685;SDS011;9473;52.342;13.110;2022-08-04T02:12:30;8.80;;;4.75;;
18685;SDS011;9473;52.342;13.110;2022-08-04T02:15:02;7.05;;;4.68;;
18685;SDS011;9473;52.342;13.110;2022-08-04T02:17:35;6.50;;;4.43;;
18685;SDS011;9473;52.342;13.110;2022-08-04T02:20:06;8.32;;;5.10;;
18685;SDS011;9473;52.342;13.110;2022-08-04T02:22:38;6.50;;;4.78;;
18685;SDS011;9473;52.342;13.110;2022-08-04T02:25:06;7.47;;;4.68;;
18685;SDS011;9473;52.342;13.110;2022-08-04T02:27:37;5.85;;;4.88;;
18685;SDS011;9473;52.342;13.110;2022-08-04T02:30:06;7.82;;;4.68;;
18685;SDS011;9473;52.342;13.110;2022-08-04T02:32:35;6.95;;;4.75;;
18685;SDS011;9473;52.342;13.110;2022-08-04T02:35:06;5.05;;;4.40;;
18685;SDS011;9473;52.342;13.110;2022-08-04T02:37:33;9.18;;;4.70;;
18685;SDS011;9473;52.342;13.110;2022-08-04T02:40:01;5.47;;;4.35;;
18685;SDS011;9473;52.342;13.110;2022-08-04T02:42:28;10.50;;;4.53;;
18685;SDS011;9473;52.342;13.110;2022-08-04T02:44:55;7.25;;;4.60;;
18685;SDS011;9473;52.342;13.110;2022-08-04T02:47:23;7.22;;;4.63;;
18685;SDS011;9473;52.342;13.110;2022-08-04T02:49:51;9.95;;;4.97;;
18685;SDS011;9473;52.342;13.110;2022-08-04T02:52:19;6.57;;;4.97;;
18685;SDS011;9473;52.342;13.110;2022-08-04T02:54:47;7.35;;;5.20;;
18685;SDS011;9473;52.342;13.110;2022-08-04T02:57:14;6.22;;;4.97;;
18685;SDS011;9473;52.342;13.110;2022-08-04T02:59:47;7.05;;;4.65;;
18685;SDS011;9473;52.342;13.110;2022-08-04T03:02:19;7.43;;;4.80;;
18685;SDS011;9473;52.342;13.110;2022-08-04T03:04:55;9.32;;;4.70;;
18685;SDS011;9473;52.342;13.110;2022-08-04T03:10:14;5.78;;;4.65;;
18685;SDS011;9473;52.342;13.110;2022-08-04T03:13:09;7.40;;;4.60;;
18685;SDS011;9473;52.342;13.110;2022-08-04T03:18:36;5.43;;;4.53;;
18685;SDS011;9473;52.342;13.110;2022-08-04T03:21:17;8.20;;;4.80;;
18685;SDS011;9473;52.342;13.110;2022-08-04T03:23:53;6.75;;;5.32;;
18685;SDS011;9473;52.342;13.110;2022-08-04T03:32:00;9.35;;;5.18;;
18685;SDS011;9473;52.342;13.110;2022-08-04T03:34:38;6.53;;;5.30;;
18685;SDS011;9473;52.342;13.110;2022-08-04T03:37:17;5.35;;;4.80;;
18685;SDS011;9473;52.342;13.110;2022-08-04T03:40:09;5.50;;;4.88;;
18685;SDS011;9473;52.342;13.110;2022-08-04T03:42:43;6.93;;;4.90;;
18685;SDS011;9473;52.342;13.110;2022-08-04T03:45:28;9.52;;;5.22;;
18685;SDS011;9473;52.342;13.110;2022-08-04T03:48:08;8.35;;;4.88;;
18685;SDS011;9473;52.342;13.110;2022-08-04T03:53:45;6.18;;;5.57;;
18685;SDS011;9473;52.342;13.110;2022-08-04T03:56:19;7.53;;;5.65;;
18685;SDS011;9473;52.342;13.110;2022-08-04T03:58:56;7.20;;;5.10;;
18685;SDS011;9473;52.342;13.110;2022-08-04T04:01:36;6.63;;;4.95;;
18685;SDS011;9473;52.342;13.110;2022-08-04T04:04:15;6.07;;;4.95;;
18685;SDS011;9473;52.342;13.110;2022-08-04T04:09:46;6.53;;;5.40;;
18685;SDS011;9473;52.342;13.110;2022-08-04T04:12:30;7.85;;;5.57;;
18685;SDS011;9473;52.342;13.110;2022-08-04T04:15:06;7.30;;;6.00;;
18685;SDS011;9473;52.342;13.110;2022-08-04T04:17:51;6.78;;;5.75;;
18685;SDS011;9473;52.342;13.110;2022-08-04T04:20:24;7.50;;;5.28;;
18685;SDS011;9473;52.342;13.110;2022-08-04T04:22:59;11.15;;;6.22;;
18685;SDS011;9473;52.342;13.110;2022-08-04T04:25:35;7.60;;;6.00;;
18685;SDS011;9473;52.342;13.110;2022-08-04T04:28:27;9.35;;;6.07;;
18685;SDS011;9473;52.342;13.110;2022-08-04T04:30:59;9.43;;;5.88;;
18685;SDS011;9473;52.342;13.110;2022-08-04T04:33:32;9.27;;;6.10;;
18685;SDS011;9473;52.342;13.110;2022-08-04T04:36:07;8.05;;;5.82;;
18685;SDS011;9473;52.342;13.110;2022-08-04T04:38:40;8.18;;;6.20;;
18685;SDS011;9473;52.342;13.110;2022-08-04T04:41:17;7.72;;;6.40;;
18685;SDS011;9473;52.342;13.110;2022-08-04T04:43:56;9.70;;;6.70;;
18685;SDS011;9473;52.342;13.110;2022-08-04T04:46:30;8.45;;;6.72;;
18685;SDS011;9473;52.342;13.110;2022-08-04T04:49:02;9.27;;;6.50;;
18685;SDS011;9473;52.342;13.110;2022-08-04T04:51:32;10.70;;;6.25;;
18685;SDS011;9473;52.342;13.110;2022-08-04T04:54:03;8.55;;;5.97;;
18685;SDS011;9473;52.342;13.110;2022-08-04T04:56:36;10.70;;;5.25;;
18685;SDS011;9473;52.342;13.110;2022-08-04T04:59:06;9.13;;;5.75;;
18685;SDS011;9473;52.342;13.110;2022-08-04T05:01:38;8.82;;;6.22;;
18685;SDS011;9473;52.342;13.110;2022-08-04T05:09:45;6.90;;;5.97;;
18685;SDS011;9473;52.342;13.110;2022-08-04T05:12:23;9.00;;;5.85;;
18685;SDS011;9473;52.342;13.110;2022-08-04T05:14:52;9.38;;;5.88;;
18685;SDS011;9473;52.342;13.110;2022-08-04T05:17:21;7.57;;;4.97;;
18685;SDS011;9473;52.342;13.110;2022-08-04T05:19:54;8.35;;;6.43;;
18685;SDS011;9473;52.342;13.110;2022-08-04T05:22:24;10.07;;;5.90;;
18685;SDS011;9473;52.342;13.110;2022-08-04T05:24:54;8.98;;;6.38;;
18685;SDS011;9473;52.342;13.110;2022-08-04T05:27:27;10.73;;;6.20;;
18685;SDS011;9473;52.342;13.110;2022-08-04T05:29:56;6.97;;;5.22;;
18685;SDS011;9473;52.342;13.110;2022-08-04T05:32:25;11.05;;;5.90;;
18685;SDS011;9473;52.342;13.110;2022-08-04T05:34:54;8.18;;;5.30;;
18685;SDS011;9473;52.342;13.110;2022-08-04T05:37:23;7.32;;;5.85;;
18685;SDS011;9473;52.342;13.110;2022-08-04T05:39:51;8.13;;;5.38;;
18685;SDS011;9473;52.342;13.110;2022-08-04T05:42:19;9.20;;;5.82;;
18685;SDS011;9473;52.342;13.110;2022-08-04T05:44:48;6.75;;;5.35;;
18685;SDS011;9473;52.342;13.110;2022-08-04T05:47:15;7.53;;;5.32;;
18685;SDS011;9473;52.342;13.110;2022-08-04T05:49:45;8.57;;;6.30;;
18685;SDS011;9473;52.342;13.110;2022-08-04T05:52:12;9.00;;;5.90;;
18685;SDS011;9473;52.342;13.110;2022-08-04T05:54:39;9.27;;;6.47;;
18685;SDS011;9473;52.342;13.110;2022-08-04T05:57:07;8.07;;;6.00;;
18685;SDS011;9473;52.342;13.110;2022-08-04T05:59:36;9.75;;;7.22;;
18685;SDS011;9473;52.342;13.110;2022-08-04T06:02:04;8.30;;;7.38;;
18685;SDS011;9473;52.342;13.110;2022-08-04T06:04:34;7.97;;;6.90;;
18685;SDS011;9473;52.342;13.110;2022-08-04T06:07:01;9.32;;;6.90;;
18685;SDS011;9473;52.342;13.110;2022-08-04T06:09:29;9.40;;;7.35;;
18685;SDS011;9473;52.342;13.110;2022-08-04T06:11:57;9.40;;;7.03;;
18685;SDS011;9473;52.342;13.110;2022-08-04T06:14:25;10.10;;;7.20;;
18685;SDS011;9473;52.342;13.110;2022-08-04T06:16:53;11.10;;;7.60;;
18685;SDS011;9473;52.342;13.110;2022-08-04T06:19:22;7.75;;;6.93;;
18685;SDS011;9473;52.342;13.110;2022-08-04T06:21:51;11.48;;;6.97;;
18685;SDS011;9473;52.342;13.110;2022-08-04T06:24:20;10.43;;;7.57;;
18685;SDS011;9473;52.342;13.110;2022-08-04T06:26:49;8.32;;;7.53;;
18685;SDS011;9473;52.342;13.110;2022-08-04T06:29:17;10.07;;;7.97;;
18685;SDS011;9473;52.342;13.110;2022-08-04T06:31:49;10.02;;;7.97;;
18685;SDS011;9473;52.342;13.110;2022-08-04T06:34:24;9.15;;;7.22;;
18685;SDS011;9473;52.342;13.110;2022-08-04T06:36:51;8.13;;;7.20;;
18685;SDS011;9473;52.342;13.110;2022-08-04T06:39:19;7.95;;;7.15;;
18685;SDS011;9473;52.342;13.110;2022-08-04T06:41:47;9.15;;;6.97;;
18685;SDS011;9473;52.342;13.110;2022-08-04T06:44:18;9.52;;;6.25;;
18685;SDS011;9473;52.342;13.110;2022-08-04T06:46:45;7.78;;;6.38;;
18685;SDS011;9473;52.342;13.110;2022-08-04T06:49:13;8.43;;;6.28;;
18685;SDS011;9473;52.342;13.110;2022-08-04T06:51:41;9.27;;;6.65;;
18685;SDS011;9473;52.342;13.110;2022-08-04T06:54:08;10.43;;;6.53;;
18685;SDS011;9473;52.342;13.110;2022-08-04T06:56:35;7.55;;;5.97;;
18685;SDS011;9473;52.342;13.110;2022-08-04T06:59:05;7.28;;;5.60;;
18685;SDS011;9473;52.342;13.110;2022-08-04T07:01:32;6.22;;;5.60;;
18685;SDS011;9473;52.342;13.110;2022-08-04T07:04:01;6.28;;;5.50;;
18685;SDS011;9473;52.342;13.110;2022-08-04T07:06:28;7.78;;;5.47;;
18685;SDS011;9473;52.342;13.110;2022-08-04T07:08:57;10.13;;;5.47;;
18685;SDS011;9473;52.342;13.110;2022-08-04T07:11:24;9.48;;;5.72;;
18685;SDS011;9473;52.342;13.110;2022-08-04T07:13:51;7.68;;;6.43;;
18685;SDS011;9473;52.342;13.110;2022-08-04T07:16:19;8.68;;;6.22;;
18685;SDS011;9473;52.342;13.110;2022-08-04T07:18:47;6.95;;;6.05;;
18685;SDS011;9473;52.342;13.110;2022-08-04T07:21:18;8.00;;;6.35;;
18685;SDS011;9473;52.342;13.110;2022-08-04T07:23:46;8.48;;;6.28;;
18685;SDS011;9473;52.342;13.110;2022-08-04T07:26:15;8.23;;;6.25;;
18685;SDS011;9473;52.342;13.110;2022-08-04T07:28:43;8.43;;;6.50;;
18685;SDS011;9473;52.342;13.110;2022-08-04T07:31:10;8.75;;;6.05;;
18685;SDS011;9473;52.342;13.110;2022-08-04T07:33:39;8.48;;;5.78;;
18685;SDS011;9473;52.342;13.110;2022-08-04T07:36:06;7.13;;;5.85;;
18685;SDS011;9473;52.342;13.110;2022-08-04T07:38:33;11.25;;;6.18;;
18685;SDS011;9473;52.342;13.110;2022-08-04T07:41:00;9.73;;;5.60;;
18685;SDS011;9473;52.342;13.110;2022-08-04T07:43:30;8.52;;;5.68;;
18685;SDS011;9473;52.342;13.110;2022-08-04T07:45:58;7.00;;;6.05;;
18685;SDS011;9473;52.342;13.110;2022-08-04T07:48:25;8.05;;;5.70;;
18685;SDS011;9473;52.342;13.110;2022-08-04T07:50:51;14.77;;;6.00;;
18685;SDS011;9473;52.342;13.110;2022-08-04T07:53:18;7.75;;;5.50;;
18685;SDS011;9473;52.342;13.110;2022-08-04T07:55:46;5.75;;;4.97;;
18685;SDS011;9473;52.342;13.110;2022-08-04T07:58:13;6.88;;;5.22;;
18685;SDS011;9473;52.342;13.110;2022-08-04T08:00:42;7.50;;;5.45;;
18685;SDS011;9473;52.342;13.110;2022-08-04T08:03:10;8.02;;;5.47;;
18685;SDS011;9473;52.342;13.110;2022-08-04T08:05:37;9.63;;;5.20;;
18685;SDS011;9473;52.342;13.110;2022-08-04T08:08:04;6.40;;;5.25;;
18685;SDS011;9473;52.342;13.110;2022-08-04T08:10:31;6.35;;;4.90;;
18685;SDS011;9473;52.342;13.110;2022-08-04T08:12:58;8.32;;;5.72;;
18685;SDS011;9473;52.342;13.110;2022-08-04T08:15:25;9.95;;;5.85;;
18685;SDS011;9473;52.342;13.110;2022-08-04T08:17:54;9.20;;;6.18;;
18685;SDS011;9473;52.342;13.110;2022-08-04T08:20:21;8.85;;;5.55;;
18685;SDS011;9473;52.342;13.110;2022-08-04T08:22:47;9.57;;;6.10;;
18685;SDS011;9473;52.342;13.110;2022-08-04T08:25:14;6.70;;;5.50;;
18685;SDS011;9473;52.342;13.110;2022-08-04T08:27:41;8.32;;;5.32;;
18685;SDS011;9473;52.342;13.110;2022-08-04T08:30:09;9.43;;;5.90;;
18685;SDS011;9473;52.342;13.110;2022-08-04T08:32:36;8.95;;;5.80;;
18685;SDS011;9473;52.342;13.110;2022-08-04T08:35:04;7.75;;;5.53;;
18685;SDS011;9473;52.342;13.110;2022-08-04T08:37:33;7.38;;;5.65;;
18685;SDS011;9473;52.342;13.110;2022-08-04T08:40:09;7.00;;;5.47;;
18685;SDS011;9473;52.342;13.110;2022-08-04T08:42:54;6.72;;;5.30;;
18685;SDS011;9473;52.342;13.110;2022-08-04T08:48:22;11.68;;;5.65;;
18685;SDS011;9473;52.342;13.110;2022-08-04T08:51:01;6.93;;;6.15;;
18685;SDS011;9473;52.342;13.110;2022-08-04T08:53:31;6.90;;;5.50;;
18685;SDS011;9473;52.342;13.110;2022-08-04T08:56:14;7.60;;;5.15;;
18685;SDS011;9473;52.342;13.110;2022-08-04T08:58:46;8.02;;;5.30;;
18685;SDS011;9473;52.342;13.110;2022-08-04T09:01:17;9.88;;;5.22;;
18685;SDS011;9473;52.342;13.110;2022-08-04T09:04:00;7.13;;;5.30;;
18685;SDS011;9473;52.342;13.110;2022-08-04T09:06:40;7.65;;;5.85;;
18685;SDS011;9473;52.342;13.110;2022-08-04T09:09:16;5.57;;;4.97;;
18685;SDS011;9473;52.342;13.110;2022-08-04T09:11:47;7.55;;;5.38;;
18685;SDS011;9473;52.342;13.110;2022-08-04T09:14:16;6.68;;;5.25;;
18685;SDS011;9473;52.342;13.110;2022-08-04T09:16:46;8.73;;;4.88;;
18685;SDS011;9473;52.342;13.110;2022-08-04T09:19:16;5.28;;;4.78;;
18685;SDS011;9473;52.342;13.110;2022-08-04T09:21:49;6.78;;;4.85;;
18685;SDS011;9473;52.342;13.110;2022-08-04T09:24:21;6.55;;;4.78;;
18685;SDS011;9473;52.342;13.110;2022-08-04T09:26:51;7.32;;;4.50;;
18685;SDS011;9473;52.342;13.110;2022-08-04T09:29:27;5.07;;;3.92;;
18685;SDS011;9473;52.342;13.110;2022-08-04T09:31:57;5.32;;;4.25;;
18685;SDS011;9473;52.342;13.110;2022-08-04T09:34:31;5.50;;;4.35;;
18685;SDS011;9473;52.342;13.110;2022-08-04T09:37:03;9.05;;;4.60;;
18685;SDS011;9473;52.342;13.110;2022-08-04T09:39:39;5.00;;;3.85;;
18685;SDS011;9473;52.342;13.110;2022-08-04T09:42:11;5.43;;;3.40;;
18685;SDS011;9473;52.342;13.110;2022-08-04T09:44:42;5.00;;;3.55;;
18685;SDS011;9473;52.342;13.110;2022-08-04T09:47:15;3.78;;;3.40;;
18685;SDS011;9473;52.342;13.110;2022-08-04T09:49:46;4.45;;;3.92;;
18685;SDS011;9473;52.342;13.110;2022-08-04T09:52:22;10.60;;;3.85;;
18685;SDS011;9473;52.342;13.110;2022-08-04T09:54:51;6.50;;;3.33;;
18685;SDS011;9473;52.342;13.110;2022-08-04T09:57:21;3.78;;;3.00;;
18685;SDS011;9473;52.342;13.110;2022-08-04T09:59:56;5.47;;;2.90;;
18685;SDS011;9473;52.342;13.110;2022-08-04T10:02:24;14.80;;;3.53;;
18685;SDS011;9473;52.342;13.110;2022-08-04T10:04:53;4.07;;;3.03;;
18685;SDS011;9473;52.342;13.110;2022-08-04T10:07:26;3.92;;;3.13;;
18685;SDS011;9473;52.342;13.110;2022-08-04T10:09:57;7.38;;;3.10;;
18685;SDS011;9473;52.342;13.110;2022-08-04T10:12:28;5.63;;;3.00;;
18685;SDS011;9473;52.342;13.110;2022-08-04T10:15:03;5.88;;;3.03;;
18685;SDS011;9473;52.342;13.110;2022-08-04T10:17:36;4.75;;;2.88;;
18685;SDS011;9473;52.342;13.110;2022-08-04T10:20:06;2.50;;;2.30;;
18685;SDS011;9473;52.342;13.110;2022-08-04T10:22:36;6.10;;;2.80;;
18685;SDS011;9473;52.342;13.110;2022-08-04T10:25:08;3.58;;;2.30;;
18685;SDS011;9473;52.342;13.110;2022-08-04T10:27:37;4.22;;;2.53;;
18685;SDS011;9473;52.342;13.110;2022-08-04T10:30:07;8.20;;;3.10;;
18685;SDS011;9473;52.342;13.110;2022-08-04T10:32:40;4.20;;;2.50;;
18685;SDS011;9473;52.342;13.110;2022-08-04T10:35:08;5.05;;;2.92;;
18685;SDS011;9473;52.342;13.110;2022-08-04T10:37:41;3.00;;;2.70;;
18685;SDS011;9473;52.342;13.110;2022-08-04T10:40:11;4.68;;;2.63;;
18685;SDS011;9473;52.342;13.110;2022-08-04T10:42:58;4.95;;;2.72;;
18685;SDS011;9473;52.342;13.110;2022-08-04T10:45:26;4.28;;;2.92;;
18685;SDS011;9473;52.342;13.110;2022-08-04T10:47:55;3.72;;;2.85;;
18685;SDS011;9473;52.342;13.110;2022-08-04T10:50:24;3.47;;;2.80;;
18685;SDS011;9473;52.342;13.110;2022-08-04T10:52:54;3.63;;;3.10;;
18685;SDS011;9473;52.342;13.110;2022-08-04T10:55:26;3.38;;;2.75;;
18685;SDS011;9473;52.342;13.110;2022-08-04T10:57:54;3.13;;;2.72;;
18685;SDS011;9473;52.342;13.110;2022-08-04T11:00:25;4.95;;;3.15;;
18685;SDS011;9473;52.342;13.110;2022-08-04T11:02:54;4.65;;;2.80;;
18685;SDS011;9473;52.342;13.110;2022-08-04T11:05:26;5.57;;;3.08;;
18685;SDS011;9473;52.342;13.110;2022-08-04T11:07:58;3.95;;;2.88;;
18685;SDS011;9473;52.342;13.110;2022-08-04T11:10:27;3.80;;;2.72;;
18685;SDS011;9473;52.342;13.110;2022-08-04T11:12:57;3.50;;;2.50;;
18685;SDS011;9473;52.342;13.110;2022-08-04T11:15:27;2.78;;;2.42;;
18685;SDS011;9473;52.342;13.110;2022-08-04T11:17:56;3.20;;;2.53;;
18685;SDS011;9473;52.342;13.110;2022-08-04T11:20:26;4.28;;;2.78;;
18685;SDS011;9473;52.342;13.110;2022-08-04T11:23:00;4.30;;;2.80;;
18685;SDS011;9473;52.342;13.110;2022-08-04T11:25:29;3.72;;;2.80;;
18685;SDS011;9473;52.342;13.110;2022-08-04T11:28:08;2.92;;;2.50;;
18685;SDS011;9473;52.342;13.110;2022-08-04T11:30:39;3.22;;;2.63;;
18685;SDS011;9473;52.342;13.110;2022-08-04T11:33:09;3.83;;;2.42;;
18685;SDS011;9473;52.342;13.110;2022-08-04T11:35:41;3.42;;;2.58;;
18685;SDS011;9473;52.342;13.110;2022-08-04T11:38:14;4.00;;;2.38;;
18685;SDS011;9473;52.342;13.110;2022-08-04T11:40:46;3.58;;;2.53;;
18685;SDS011;9473;52.342;13.110;2022-08-04T11:43:15;5.85;;;2.70;;
18685;SDS011;9473;52.342;13.110;2022-08-04T11:45:46;3.38;;;2.45;;
18685;SDS011;9473;52.342;13.110;2022-08-04T11:48:18;4.85;;;2.38;;
18685;SDS011;9473;52.342;13.110;2022-08-04T11:50:46;5.25;;;3.00;;
18685;SDS011;9473;52.342;13.110;2022-08-04T11:53:17;5.80;;;2.50;;
18685;SDS011;9473;52.342;13.110;2022-08-04T11:55:45;7.70;;;2.60;;
18685;SDS011;9473;52.342;13.110;2022-08-04T11:58:13;5.93;;;2.60;;
18685;SDS011;9473;52.342;13.110;2022-08-04T12:00:44;7.85;;;2.65;;
18685;SDS011;9473;52.342;13.110;2022-08-04T12:03:23;5.03;;;2.70;;
18685;SDS011;9473;52.342;13.110;2022-08-04T12:05:54;3.10;;;2.80;;
18685;SDS011;9473;52.342;13.110;2022-08-04T12:08:28;3.75;;;2.80;;
18685;SDS011;9473;52.342;13.110;2022-08-04T12:11:00;5.22;;;2.70;;
18685;SDS011;9473;52.342;13.110;2022-08-04T12:13:34;2.90;;;2.60;;
18685;SDS011;9473;52.342;13.110;2022-08-04T12:16:03;5.10;;;2.78;;
18685;SDS011;9473;52.342;13.110;2022-08-04T12:18:37;3.55;;;2.28;;
18685;SDS011;9473;52.342;13.110;2022-08-04T12:21:06;2.10;;;1.90;;
18685;SDS011;9473;52.342;13.110;2022-08-04T12:23:37;3.47;;;2.40;;
18685;SDS011;9473;52.342;13.110;2022-08-04T12:26:05;5.05;;;2.10;;
18685;SDS011;9473;52.342;13.110;2022-08-04T12:28:33;2.60;;;2.25;;
18685;SDS011;9473;52.342;13.110;2022-08-04T12:31:01;4.90;;;3.00;;
18685;SDS011;9473;52.342;13.110;2022-08-04T12:33:33;2.65;;;2.05;;
18685;SDS011;9473;52.342;13.110;2022-08-04T12:36:14;3.63;;;2.15;;
18685;SDS011;9473;52.342;13.110;2022-08-04T12:38:46;2.90;;;2.38;;
18685;SDS011;9473;52.342;13.110;2022-08-04T12:41:14;2.88;;;2.40;;
18685;SDS011;9473;52.342;13.110;2022-08-04T12:43:42;3.75;;;2.38;;
18685;SDS011;9473;52.342;13.110;2022-08-04T12:46:12;4.07;;;2.85;;
18685;SDS011;9473;52.342;13.110;2022-08-04T12:48:44;3.00;;;2.47;;
18685;SDS011;9473;52.342;13.110;2022-08-04T12:51:12;2.70;;;2.40;;
18685;SDS011;9473;52.342;13.110;2022-08-04T12:53:40;5.03;;;2.40;;
18685;SDS011;9473;52.342;13.110;2022-08-04T12:56:10;2.35;;;2.15;;
18685;SDS011;9473;52.342;13.110;2022-08-04T12:58:39;3.33;;;2.30;;
18685;SDS011;9473;52.342;13.110;2022-08-04T13:01:10;3.88;;;2.40;;
18685;SDS011;9473;52.342;13.110;2022-08-04T13:03:39;2.55;;;2.17;;
18685;SDS011;9473;52.342;13.110;2022-08-04T13:06:08;3.08;;;2.30;;
18685;SDS011;9473;52.342;13.110;2022-08-04T13:08:37;3.55;;;2.20;;
18685;SDS011;9473;52.342;13.110;2022-08-04T13:11:06;2.55;;;2.13;;
18685;SDS011;9473;52.342;13.110;2022-08-04T13:13:35;3.60;;;2.10;;
18685;SDS011;9473;52.342;13.110;2022-08-04T13:16:04;4.55;;;1.92;;
18685;SDS011;9473;52.342;13.110;2022-08-04T13:18:32;2.65;;;1.90;;
18685;SDS011;9473;52.342;13.110;2022-08-04T13:21:08;5.38;;;1.92;;
18685;SDS011;9473;52.342;13.110;2022-08-04T13:23:37;2.95;;;1.83;;
18685;SDS011;9473;52.342;13.110;2022-08-04T13:26:05;3.28;;;1.90;;
18685;SDS011;9473;52.342;13.110;2022-08-04T13:28:32;2.45;;;1.90;;
18685;SDS011;9473;52.342;13.110;2022-08-04T13:31:03;3.33;;;1.88;;
18685;SDS011;9473;52.342;13.110;2022-08-04T13:33:32;6.15;;;2.10;;
18685;SDS011;9473;52.342;13.110;2022-08-04T13:36:00;2.63;;;2.20;;
18685;SDS011;9473;52.342;13.110;2022-08-04T13:38:28;2.20;;;1.90;;
18685;SDS011;9473;52.342;13.110;2022-08-04T13:40:59;2.90;;;2.00;;
18685;SDS011;9473;52.342;13.110;2022-08-04T13:43:27;2.80;;;2.03;;
18685;SDS011;9473;52.342;13.110;2022-08-04T13:45:59;3.90;;;2.10;;
18685;SDS011;9473;52.342;13.110;2022-08-04T13:48:33;5.07;;;2.00;;
18685;SDS011;9473;52.342;13.110;2022-08-04T13:51:02;5.78;;;2.35;;
18685;SDS011;9473;52.342;13.110;2022-08-04T13:53:31;6.47;;;2.08;;
18685;SDS011;9473;52.342;13.110;2022-08-04T13:56:00;2.97;;;2.22;;
18685;SDS011;9473;52.342;13.110;2022-08-04T13:58:30;3.83;;;2.15;;
18685;SDS011;9473;52.342;13.110;2022-08-04T14:01:01;2.60;;;2.20;;
18685;SDS011;9473;52.342;13.110;2022-08-04T14:03:36;3.45;;;2.20;;
18685;SDS011;9473;52.342;13.110;2022-08-04T14:06:06;2.33;;;2.13;;
18685;SDS011;9473;52.342;13.110;2022-08-04T14:08:42;3.45;;;2.40;;
18685;SDS011;9473;52.342;13.110;2022-08-04T14:11:14;4.65;;;2.30;;
18685;SDS011;9473;52.342;13.110;2022-08-04T14:13:56;3.60;;;2.55;;
18685;SDS011;9473;52.342;13.110;2022-08-04T14:16:31;4.80;;;2.33;;
18685;SDS011;9473;52.342;13.110;2022-08-04T14:19:20;3.25;;;2.10;;
18685;SDS011;9473;52.342;13.110;2022-08-04T14:21:53;4.10;;;2.40;;
18685;SDS011;9473;52.342;13.110;2022-08-04T14:24:27;3.97;;;2.22;;
18685;SDS011;9473;52.342;13.110;2022-08-04T14:27:07;3.47;;;2.00;;
18685;SDS011;9473;52.342;13.110;2022-08-04T14:29:38;2.60;;;2.20;;
18685;SDS011;9473;52.342;13.110;2022-08-04T14:32:09;3.00;;;1.90;;
18685;SDS011;9473;52.342;13.110;2022-08-04T14:34:43;2.83;;;1.92;;
18685;SDS011;9473;52.342;13.110;2022-08-04T14:37:15;2.22;;;1.80;;
18685;SDS011;9473;52.342;13.110;2022-08-04T14:39:44;2.03;;;1.83;;
18685;SDS011;9473;52.342;13.110;2022-08-04T14:42:12;7.03;;;1.95;;
18685;SDS011;9473;52.342;13.110;2022-08-04T14:44:51;2.65;;;1.98;;
18685;SDS011;9473;52.342;13.110;2022-08-04T14:47:29;3.10;;;2.03;;
18685;SDS011;9473;52.342;13.110;2022-08-04T14:50:07;3.80;;;2.25;;
18685;SDS011;9473;52.342;13.110;2022-08-04T14:52:35;1.98;;;1.75;;
18685;SDS011;9473;52.342;13.110;2022-08-04T14:55:14;2.33;;;1.90;;
18685;SDS011;9473;52.342;13.110;2022-08-04T14:57:42;3.58;;;1.70;;
18685;SDS011;9473;52.342;13.110;2022-08-04T15:00:13;4.35;;;1.90;;
18685;SDS011;9473;52.342;13.110;2022-08-04T15:02:55;2.15;;;1.83;;
18685;SDS011;9473;52.342;13.110;2022-08-04T15:05:25;2.95;;;2.10;;
18685;SDS011;9473;52.342;13.110;2022-08-04T15:08:00;3.75;;;2.00;;
18685;SDS011;9473;52.342;13.110;2022-08-04T15:10:36;3.42;;;1.70;;
18685;SDS011;9473;52.342;13.110;2022-08-04T15:13:27;2.75;;;1.67;;
18685;SDS011;9473;52.342;13.110;2022-08-04T15:15:59;4.00;;;1.88;;
18685;SDS011;9473;52.342;13.110;2022-08-04T15:18:26;2.45;;;1.50;;
18685;SDS011;9473;52.342;13.110;2022-08-04T15:20:56;4.57;;;1.77;;
18685;SDS011;9473;52.342;13.110;2022-08-04T15:23:23;1.58;;;1.48;;
18685;SDS011;9473;52.342;13.110;2022-08-04T15:25:51;4.88;;;1.90;;
18685;SDS011;9473;52.342;13.110;2022-08-04T15:28:19;2.22;;;1.55;;
18685;SDS011;9473;52.342;13.110;2022-08-04T15:30:47;2.72;;;1.70;;
18685;SDS011;9473;52.342;13.110;2022-08-04T15:33:15;2.60;;;1.85;;
18685;SDS011;9473;52.342;13.110;2022-08-04T15:35:48;2.30;;;1.88;;
18685;SDS011;9473;52.342;13.110;2022-08-04T15:38:21;1.98;;;1.77;;
18685;SDS011;9473;52.342;13.110;2022-08-04T15:40:53;3.30;;;1.70;;